Time;durP1;ratioP1;P1;durP2;ratioP2;P2;SDS_P1;SDS_P2;PMS_P1;PMS_P2;Temp;Humidity;BMP_temperature;BMP_pressure;BME280_temperature;BME280_humidity;BME280_pressure;Samples;Min_cycle;Max_cycle;Signal;HPM_P1;HPM_P2
2021/08/01 00:00:30;;;;;;;29.15;13.45;;;;;;;;;;5095963;28;20511;-76
2021/08/01 00:02:56;;;;;;;31.80;12.55;;;;;;;;;;5095315;28;20039;-76
2021/08/01 00:05:21;;;;;;;38.13;15.00;;;;;;;;;;5095897;28;20016;-76
2021/08/01 00:07:47;;;;;;;30.45;13.20;;;;;;;;;;5096005;28;20016;-76
2021/08/01 00:10:12;;;;;;;35.00;13.75;;;;;;;;;;5095469;28;20123;-76
2021/08/01 00:12:40;;;;;;;34.28;14.40;;;;;;;;;;5096144;28;20062;-75
2021/08/01 00:15:05;;;;;;;31.13;13.85;;;;;;;;;;5095807;28;20019;-76
2021/08/01 00:17:31;;;;;;;41.67;15.55;;;;;;;;;;5095584;28;20062;-76
2021/08/01 00:19:56;;;;;;;37.25;14.57;;;;;;;;;;5095234;28;20023;-76
2021/08/01 00:22:24;;;;;;;36.33;14.88;;;;;;;;;;5094460;28;20053;-76
2021/08/01 00:24:49;;;;;;;31.20;13.77;;;;;;;;;;5095545;28;20058;-76
2021/08/01 00:27:15;;;;;;;40.50;16.15;;;;;;;;;;5095460;28;20020;-76
2021/08/01 00:29:40;;;;;;;40.35;14.73;;;;;;;;;;5095594;28;20380;-76
2021/08/01 00:32:06;;;;;;;51.05;17.60;;;;;;;;;;5095376;28;20114;-76
2021/08/01 00:34:31;;;;;;;41.08;14.95;;;;;;;;;;5095384;28;20016;-76
2021/08/01 00:36:56;;;;;;;44.92;15.32;;;;;;;;;;5095043;28;20448;-76
2021/08/01 00:39:22;;;;;;;35.90;13.82;;;;;;;;;;5095271;28;20032;-76
2021/08/01 00:41:47;;;;;;;39.78;13.80;;;;;;;;;;5095366;28;20559;-76
2021/08/01 00:44:12;;;;;;;51.55;17.02;;;;;;;;;;5095333;28;20027;-76
2021/08/01 00:46:40;;;;;;;46.10;16.63;;;;;;;;;;5095180;28;20491;-76
2021/08/01 00:49:05;;;;;;;51.75;17.10;;;;;;;;;;5095111;28;20024;-75
2021/08/01 00:51:31;;;;;;;39.72;15.27;;;;;;;;;;5095014;28;20031;-76
2021/08/01 00:53:57;;;;;;;39.25;14.32;;;;;;;;;;5095062;28;20032;-76
2021/08/01 00:56:23;;;;;;;35.28;13.82;;;;;;;;;;5094925;28;20054;-75
2021/08/01 00:58:48;;;;;;;42.47;15.35;;;;;;;;;;5095009;28;20024;-76
2021/08/01 01:01:18;;;;;;;37.38;14.20;;;;;;;;;;5094730;28;20387;-76
2021/08/01 01:03:53;;;;;;;56.17;15.48;;;;;;;;;;5094816;28;20042;-76
2021/08/01 01:06:25;;;;;;;55.05;16.38;;;;;;;;;;5094534;28;20438;-76
2021/08/01 01:08:55;;;;;;;39.75;15.40;;;;;;;;;;5094703;28;20047;-76
2021/08/01 01:11:23;;;;;;;43.75;15.23;;;;;;;;;;5094645;28;20058;-75
2021/08/01 01:13:51;;;;;;;108.40;22.95;;;;;;;;;;5094630;28;20032;-76
2021/08/01 01:16:17;;;;;;;50.85;18.00;;;;;;;;;;5094624;28;20024;-76
2021/08/01 01:18:47;;;;;;;56.08;18.05;;;;;;;;;;5094559;28;20467;-77
2021/08/01 01:21:31;;;;;;;61.15;18.75;;;;;;;;;;5094050;28;20051;-76
2021/08/01 01:24:13;;;;;;;47.72;16.35;;;;;;;;;;5094395;28;20032;-76
2021/08/01 01:26:39;;;;;;;57.60;18.50;;;;;;;;;;5094424;28;20028;-77
2021/08/01 01:29:22;;;;;;;68.18;18.38;;;;;;;;;;5094326;28;20024;-76
2021/08/01 01:31:48;;;;;;;49.10;17.42;;;;;;;;;;5094357;28;20040;-76
2021/08/01 01:34:13;;;;;;;62.40;17.73;;;;;;;;;;5093970;28;20028;-76
2021/08/01 01:36:42;;;;;;;46.05;15.48;;;;;;;;;;5094082;28;20032;-76
2021/08/01 01:39:08;;;;;;;85.57;20.88;;;;;;;;;;5094108;28;20058;-77
2021/08/01 01:41:35;;;;;;;48.00;16.55;;;;;;;;;;5094083;28;20044;-76
2021/08/01 01:44:00;;;;;;;63.53;19.77;;;;;;;;;;5094085;28;20124;-76
2021/08/01 01:46:26;;;;;;;46.42;16.52;;;;;;;;;;5094029;28;20486;-76
2021/08/01 01:48:53;;;;;;;68.20;20.08;;;;;;;;;;5094143;28;20460;-76
2021/08/01 01:51:18;;;;;;;58.00;18.40;;;;;;;;;;5093837;28;20047;-77
2021/08/01 01:53:44;;;;;;;51.15;19.45;;;;;;;;;;5093786;28;20373;-76
2021/08/01 01:56:10;;;;;;;39.92;15.95;;;;;;;;;;5093836;28;20020;-76
2021/08/01 01:58:36;;;;;;;50.83;17.25;;;;;;;;;;5093857;28;20040;-76
2021/08/01 02:01:01;;;;;;;79.80;21.25;;;;;;;;;;5093293;28;20383;-76
2021/08/01 02:03:27;;;;;;;59.22;17.98;;;;;;;;;;5093649;28;20044;-76
2021/08/01 02:05:52;;;;;;;61.92;17.67;;;;;;;;;;5093710;28;20028;-76
2021/08/01 02:08:17;;;;;;;42.53;16.40;;;;;;;;;;5093414;28;20055;-76
2021/08/01 02:10:53;;;;;;;40.20;11.25;;;;;;;;;;5093651;28;20527;-76
2021/08/01 02:13:22;;;;;;;35.17;11.00;;;;;;;;;;5093705;28;20036;-76
2021/08/01 02:15:50;;;;;;;38.75;11.63;;;;;;;;;;5093584;28;20032;-76
2021/08/01 02:18:34;;;;;;;41.50;12.23;;;;;;;;;;5093630;28;20036;-76
2021/08/01 02:21:00;;;;;;;34.50;11.60;;;;;;;;;;5093478;28;20048;-76
2021/08/01 02:23:26;;;;;;;29.88;11.45;;;;;;;;;;5093537;28;20036;-76
2021/08/01 02:25:52;;;;;;;51.28;12.98;;;;;;;;;;5093483;28;20016;-76
2021/08/01 02:28:19;;;;;;;42.63;12.55;;;;;;;;;;5093502;28;20038;-76
2021/08/01 02:30:44;;;;;;;52.10;12.40;;;;;;;;;;5093100;28;20423;-76
2021/08/01 02:33:11;;;;;;;32.13;11.30;;;;;;;;;;5093448;28;20068;-76
2021/08/01 02:35:37;;;;;;;27.20;10.52;;;;;;;;;;5093328;28;20027;-77
2021/08/01 02:38:03;;;;;;;32.15;11.05;;;;;;;;;;5093124;28;20036;-77
2021/08/01 02:40:30;;;;;;;38.85;12.23;;;;;;;;;;5093567;28;20105;-76
2021/08/01 02:42:55;;;;;;;39.08;12.50;;;;;;;;;;5093539;28;20380;-77
2021/08/01 02:45:21;;;;;;;29.13;10.52;;;;;;;;;;5093235;28;20043;-77
2021/08/01 02:47:49;;;;;;;26.30;11.20;;;;;;;;;;5093531;28;20027;-76
2021/08/01 02:50:15;;;;;;;41.33;12.63;;;;;;;;;;5093211;28;20028;-77
2021/08/01 02:52:44;;;;;;;40.03;11.45;;;;;;;;;;5092971;28;20485;-76
2021/08/01 02:55:12;;;;;;;61.63;13.95;;;;;;;;;;5093217;28;20364;-76
2021/08/01 02:57:39;;;;;;;42.72;13.10;;;;;;;;;;5093472;28;20038;-76
2021/08/01 03:00:04;;;;;;;26.88;11.27;;;;;;;;;;5093235;28;20121;-76
2021/08/01 03:02:30;;;;;;;39.78;12.60;;;;;;;;;;5093225;28;20480;-77
2021/08/01 03:04:57;;;;;;;45.33;12.63;;;;;;;;;;5093234;28;20029;-76
2021/08/01 03:07:23;;;;;;;53.03;12.75;;;;;;;;;;5096617;28;20032;-76
2021/08/01 03:09:49;;;;;;;48.70;13.30;;;;;;;;;;5096747;28;20028;-76
2021/08/01 03:12:15;;;;;;;42.00;13.10;;;;;;;;;;5096998;28;20365;-76
2021/08/01 03:14:40;;;;;;;43.45;13.05;;;;;;;;;;5096937;28;20110;-77
2021/08/01 03:17:06;;;;;;;53.38;13.60;;;;;;;;;;5096918;28;20032;-76
2021/08/01 03:19:35;;;;;;;28.40;11.07;;;;;;;;;;5096954;28;20031;-76
2021/08/01 03:22:01;;;;;;;45.40;12.77;;;;;;;;;;5096889;28;20130;-76
2021/08/01 03:24:26;;;;;;;15.80;7.60;;;;;;;;;;5096795;28;20016;-76
2021/08/01 03:26:51;;;;;;;13.55;5.28;;;;;;;;;;5096685;28;20115;-76
2021/08/01 03:29:17;;;;;;;14.48;4.50;;;;;;;;;;5096820;28;20114;-76
2021/08/01 03:31:42;;;;;;;10.27;4.82;;;;;;;;;;5096590;28;20365;-77
2021/08/01 03:34:07;;;;;;;13.13;4.65;;;;;;;;;;5096861;28;20107;-76
2021/08/01 03:36:33;;;;;;;11.05;4.35;;;;;;;;;;5096422;28;20167;-77
2021/08/01 03:38:58;;;;;;;8.80;4.57;;;;;;;;;;5096573;28;20429;-76
2021/08/01 03:41:23;;;;;;;17.10;5.45;;;;;;;;;;5095460;28;20535;-76
2021/08/01 03:43:48;;;;;;;15.85;4.60;;;;;;;;;;5096431;28;20085;-76
2021/08/01 03:46:14;;;;;;;7.32;3.90;;;;;;;;;;5096318;28;20055;-76
2021/08/01 03:48:39;;;;;;;10.55;4.43;;;;;;;;;;5095984;28;20036;-76
2021/08/01 03:51:04;;;;;;;10.60;6.20;;;;;;;;;;5096206;28;20031;-76
2021/08/01 03:53:32;;;;;;;5.55;3.78;;;;;;;;;;5095832;28;20026;-76
2021/08/01 03:56:01;;;;;;;9.70;5.53;;;;;;;;;;5095855;28;20555;-76
2021/08/01 03:58:26;;;;;;;18.48;8.52;;;;;;;;;;5096109;28;20023;-76
2021/08/01 04:00:51;;;;;;;13.05;5.82;;;;;;;;;;5096032;28;20035;-76
2021/08/01 04:03:17;;;;;;;16.20;5.55;;;;;;;;;;5095674;28;20028;-76
2021/08/01 04:05:42;;;;;;;13.20;5.88;;;;;;;;;;5095942;28;20043;-76
2021/08/01 04:08:07;;;;;;;13.32;6.47;;;;;;;;;;5095626;28;20024;-76
2021/08/01 04:10:32;;;;;;;8.15;5.93;;;;;;;;;;5095830;28;20028;-77
2021/08/01 04:12:58;;;;;;;12.18;6.00;;;;;;;;;;5095840;28;20042;-77
2021/08/01 04:15:23;;;;;;;16.77;7.03;;;;;;;;;;5095401;28;20024;-76
2021/08/01 04:17:48;;;;;;;9.32;6.03;;;;;;;;;;5095364;28;20028;-76
2021/08/01 04:20:15;;;;;;;11.27;5.38;;;;;;;;;;5095248;28;20048;-77
2021/08/01 04:22:41;;;;;;;10.20;4.85;;;;;;;;;;5094839;28;20032;-76
2021/08/01 04:25:06;;;;;;;12.73;4.93;;;;;;;;;;5095423;28;20054;-76
2021/08/01 04:27:31;;;;;;;123.20;49.60;;;;;;;;;;5095137;28;20032;-76
2021/08/01 04:29:57;;;;;;;26.85;20.10;;;;;;;;;;5095808;28;20024;-76
2021/08/01 04:32:22;;;;;;;9.00;5.07;;;;;;;;;;5095405;28;20036;-76
2021/08/01 04:34:47;;;;;;;107.30;98.65;;;;;;;;;;5095379;28;20376;-76
2021/08/01 04:37:12;;;;;;;14.75;13.98;;;;;;;;;;5095264;28;20012;-76
2021/08/01 04:39:38;;;;;;;561.67;304.67;;;;;;;;;;5095238;28;20111;-77
2021/08/01 04:42:03;;;;;;;9.00;8.10;;;;;;;;;;5095416;28;20491;-76
2021/08/01 04:44:28;;;;;;;32.85;30.40;;;;;;;;;;5094930;28;20108;-76
2021/08/01 04:46:54;;;;;;;17.60;16.70;;;;;;;;;;5094827;28;20024;-77
2021/08/01 04:49:19;;;;;;;10.23;9.63;;;;;;;;;;5095156;28;20032;-77
2021/08/01 04:51:44;;;;;;;14.05;13.25;;;;;;;;;;5095084;28;20536;-76
2021/08/01 04:54:09;;;;;;;13.18;12.15;;;;;;;;;;5094757;28;20157;-77
2021/08/01 04:56:35;;;;;;;10.63;9.93;;;;;;;;;;5094997;28;20110;-76
2021/08/01 04:59:00;;;;;;;10.50;9.70;;;;;;;;;;5094710;28;20020;-77
2021/08/01 05:01:25;;;;;;;10.25;8.00;;;;;;;;;;5095063;28;20032;-76
2021/08/01 05:03:51;;;;;;;10.90;8.27;;;;;;;;;;5094836;28;20434;-77
2021/08/01 05:06:16;;;;;;;8.35;7.53;;;;;;;;;;5094834;28;20395;-76
2021/08/01 05:08:41;;;;;;;8.40;7.50;;;;;;;;;;5094921;28;20058;-77
2021/08/01 05:11:06;;;;;;;7.68;6.93;;;;;;;;;;5094724;28;20464;-77
2021/08/01 05:13:32;;;;;;;8.90;7.00;;;;;;;;;;5094758;28;20035;-76
2021/08/01 05:15:57;;;;;;;16.27;15.43;;;;;;;;;;5094614;28;20042;-76
2021/08/01 05:18:22;;;;;;;36.80;34.22;;;;;;;;;;5094625;28;20057;-76
2021/08/01 05:20:48;;;;;;;13.80;12.60;;;;;;;;;;5094428;28;20047;-77
2021/08/01 05:23:13;;;;;;;11.90;10.85;;;;;;;;;;5094444;28;20032;-76
2021/08/01 05:25:38;;;;;;;12.65;11.55;;;;;;;;;;5094517;28;20164;-77
2021/08/01 05:28:04;;;;;;;12.63;11.43;;;;;;;;;;5093894;28;20066;-76
2021/08/01 05:30:29;;;;;;;18.55;16.75;;;;;;;;;;5094256;28;20054;-77
2021/08/01 05:32:54;;;;;;;13.32;11.25;;;;;;;;;;5094012;28;20487;-76
2021/08/01 05:35:20;;;;;;;13.38;11.43;;;;;;;;;;5094210;28;20016;-76
2021/08/01 05:37:45;;;;;;;13.80;11.65;;;;;;;;;;5094144;28;20031;-77
2021/08/01 05:40:11;;;;;;;12.32;10.65;;;;;;;;;;5094243;28;20032;-77
2021/08/01 05:42:37;;;;;;;16.05;12.00;;;;;;;;;;5094108;28;20361;-76
2021/08/01 05:45:02;;;;;;;15.20;11.63;;;;;;;;;;5094407;28;20020;-76
2021/08/01 05:47:27;;;;;;;15.80;11.23;;;;;;;;;;5093979;28;20805;-77
2021/08/01 05:49:53;;;;;;;19.33;10.02;;;;;;;;;;5094101;28;20024;-76
2021/08/01 05:52:18;;;;;;;10.80;9.52;;;;;;;;;;5093650;28;20020;-76
2021/08/01 05:54:43;;;;;;;15.85;9.13;;;;;;;;;;5094015;28;20028;-77
2021/08/01 05:57:09;;;;;;;14.52;9.30;;;;;;;;;;5093802;28;20441;-77
2021/08/01 05:59:34;;;;;;;14.55;8.88;;;;;;;;;;5094022;28;20067;-76
2021/08/01 06:01:59;;;;;;;9.73;8.73;;;;;;;;;;5093759;28;20036;-77
2021/08/01 06:04:25;;;;;;;10.65;9.60;;;;;;;;;;5094093;28;20368;-76
2021/08/01 06:06:50;;;;;;;10.55;8.90;;;;;;;;;;5093975;28;20032;-76
2021/08/01 06:09:15;;;;;;;94.28;79.38;;;;;;;;;;5093689;28;20032;-76
2021/08/01 06:11:40;;;;;;;12.93;10.13;;;;;;;;;;5093646;28;20089;-76
2021/08/01 06:14:06;;;;;;;1999.90;999.90;;;;;;;;;;5093659;28;20027;-76
2021/08/01 06:16:31;;;;;;;1999.90;999.90;;;;;;;;;;5093642;28;20475;-76
2021/08/01 06:18:56;;;;;;;624.40;364.17;;;;;;;;;;5093668;28;20095;-76
2021/08/01 06:21:22;;;;;;;1999.90;999.90;;;;;;;;;;5093088;28;20137;-76
2021/08/01 06:23:49;;;;;;;1999.90;999.90;;;;;;;;;;5093512;28;20098;-75
2021/08/01 06:26:14;;;;;;;610.83;351.48;;;;;;;;;;5093592;28;20020;-76
2021/08/01 06:28:40;;;;;;;1999.90;999.90;;;;;;;;;;5093175;28;20134;-76
2021/08/01 06:31:06;;;;;;;1999.90;999.90;;;;;;;;;;5093198;28;20028;-77
2021/08/01 06:33:32;;;;;;;1999.90;999.90;;;;;;;;;;5093025;28;20027;-76
2021/08/01 06:35:57;;;;;;;1999.90;999.90;;;;;;;;;;5093312;28;20024;-76
2021/08/01 06:38:23;;;;;;;1999.90;999.90;;;;;;;;;;5093298;28;20038;-77
2021/08/01 06:40:48;;;;;;;1999.90;999.90;;;;;;;;;;5096073;28;20440;-77
2021/08/01 06:43:13;;;;;;;1999.90;999.90;;;;;;;;;;5097458;28;20028;-76
2021/08/01 06:45:39;;;;;;;1999.90;999.90;;;;;;;;;;5097480;28;20039;-77
2021/08/01 06:48:06;;;;;;;1999.90;999.90;;;;;;;;;;5097513;28;20024;-76
2021/08/01 06:50:31;;;;;;;1999.90;999.90;;;;;;;;;;5097393;28;20028;-76
2021/08/01 06:52:56;;;;;;;1999.90;999.90;;;;;;;;;;5096135;28;20369;-76
2021/08/01 06:55:22;;;;;;;166.10;154.63;;;;;;;;;;5097320;28;20015;-77
2021/08/01 06:57:47;;;;;;;10.75;9.77;;;;;;;;;;5095968;28;20111;-76
2021/08/01 07:00:13;;;;;;;58.85;54.65;;;;;;;;;;5096434;28;20442;-76
2021/08/01 07:02:38;;;;;;;1999.90;999.90;;;;;;;;;;5096817;28;20049;-76
2021/08/01 07:05:03;;;;;;;1999.90;999.90;;;;;;;;;;5097154;28;20134;-76
2021/08/01 07:07:29;;;;;;;1999.90;999.90;;;;;;;;;;5097223;28;20024;-76
2021/08/01 07:09:54;;;;;;;1999.90;999.90;;;;;;;;;;5097000;28;20099;-76
2021/08/01 07:12:19;;;;;;;1999.90;999.90;;;;;;;;;;5097033;28;20407;-76
2021/08/01 07:14:47;;;;;;;1999.90;999.90;;;;;;;;;;5096888;28;20111;-77
2021/08/01 07:17:13;;;;;;;1999.90;999.90;;;;;;;;;;5096981;28;20016;-77
2021/08/01 07:19:38;;;;;;;1999.90;999.90;;;;;;;;;;5096969;28;20035;-77
2021/08/01 07:22:03;;;;;;;1999.90;999.90;;;;;;;;;;5096983;28;20052;-77
2021/08/01 07:24:29;;;;;;;1999.90;999.90;;;;;;;;;;5096835;28;20475;-77
2021/08/01 07:26:55;;;;;;;1999.90;999.90;;;;;;;;;;5097115;28;20129;-77
2021/08/01 07:29:21;;;;;;;1999.90;999.90;;;;;;;;;;5096675;28;20537;-78
2021/08/01 07:31:46;;;;;;;1999.90;999.90;;;;;;;;;;5096710;28;20111;-77
2021/08/01 07:34:11;;;;;;;1999.90;999.90;;;;;;;;;;5096559;28;20035;-77
2021/08/01 07:36:36;;;;;;;82.32;78.03;;;;;;;;;;5090373;28;20139;-77
2021/08/01 07:39:02;;;;;;;118.80;112.63;;;;;;;;;;5095259;28;20016;-77
2021/08/01 07:41:27;;;;;;;68.72;65.10;;;;;;;;;;5095358;28;20107;-76
2021/08/01 07:43:53;;;;;;;17.42;16.00;;;;;;;;;;5095574;28;20086;-77
2021/08/01 07:46:18;;;;;;;14.05;13.07;;;;;;;;;;5096230;28;20023;-77
2021/08/01 07:48:44;;;;;;;22.30;20.80;;;;;;;;;;5096301;28;20028;-77
2021/08/01 07:51:09;;;;;;;31.92;30.13;;;;;;;;;;5095516;28;20425;-77
2021/08/01 07:53:34;;;;;;;16.55;15.43;;;;;;;;;;5096175;28;20368;-77
2021/08/01 07:56:00;;;;;;;20.83;19.45;;;;;;;;;;5096468;28;20381;-77
2021/08/01 07:58:25;;;;;;;1999.90;999.90;;;;;;;;;;5095901;28;20071;-77
2021/08/01 08:00:50;;;;;;;1208.95;568.67;;;;;;;;;;5095996;28;20059;-77
2021/08/01 08:03:16;;;;;;;8.43;3.72;;;;;;;;;;5095743;28;20465;-77
2021/08/01 08:05:41;;;;;;;4.10;3.65;;;;;;;;;;5095747;28;20036;-77
2021/08/01 08:08:06;;;;;;;7.70;3.53;;;;;;;;;;5095904;28;20016;-77
2021/08/01 08:10:31;;;;;;;5.88;3.72;;;;;;;;;;5095949;28;20024;-76
2021/08/01 08:12:57;;;;;;;5.40;4.43;;;;;;;;;;5091373;28;20115;-77
2021/08/01 08:15:22;;;;;;;6.43;4.13;;;;;;;;;;5094200;28;20019;-77
2021/08/01 08:17:47;;;;;;;4.45;2.97;;;;;;;;;;5094463;28;20040;-77
2021/08/01 08:20:13;;;;;;;10.65;4.00;;;;;;;;;;5094682;28;20044;-76
2021/08/01 08:22:38;;;;;;;6.60;3.60;;;;;;;;;;5095032;28;20435;-76
2021/08/01 08:25:04;;;;;;;7.35;3.70;;;;;;;;;;5094998;28;20024;-77
2021/08/01 08:27:30;;;;;;;7.00;3.20;;;;;;;;;;5094429;28;20028;-77
2021/08/01 08:29:55;;;;;;;5.53;3.70;;;;;;;;;;5095444;28;20431;-76
2021/08/01 08:32:20;;;;;;;7.00;3.90;;;;;;;;;;5095470;28;20073;-77
2021/08/01 08:34:46;;;;;;;18.70;17.48;;;;;;;;;;5095489;28;20436;-77
2021/08/01 08:37:12;;;;;;;3.80;3.00;;;;;;;;;;5095420;28;20062;-76
2021/08/01 08:39:38;;;;;;;7.80;6.30;;;;;;;;;;5095391;28;20357;-77
2021/08/01 08:42:03;;;;;;;4.68;2.50;;;;;;;;;;5095284;28;20044;-77
2021/08/01 08:44:28;;;;;;;4.22;2.22;;;;;;;;;;5095167;28;20020;-77
2021/08/01 08:46:57;;;;;;;7.40;2.60;;;;;;;;;;5095226;28;20035;-77
2021/08/01 08:49:22;;;;;;;5.93;2.28;;;;;;;;;;5095022;28;20419;-77
2021/08/01 08:51:50;;;;;;;3.30;2.10;;;;;;;;;;5094925;28;20076;-77
2021/08/01 08:54:16;;;;;;;1.88;1.15;;;;;;;;;;5094763;28;20522;-77
2021/08/01 08:56:43;;;;;;;5.72;1.27;;;;;;;;;;5095228;28;20468;-76
2021/08/01 08:59:16;;;;;;;2.35;1.40;;;;;;;;;;5094626;28;20472;-77
2021/08/01 09:01:41;;;;;;;3.95;1.10;;;;;;;;;;5093539;28;20048;-77
2021/08/01 09:04:06;;;;;;;1.75;1.00;;;;;;;;;;5093778;28;20460;-76
2021/08/01 09:06:32;;;;;;;2.05;1.30;;;;;;;;;;5094061;28;20024;-77
2021/08/01 09:08:57;;;;;;;1.52;0.98;;;;;;;;;;5094722;28;20028;-77
2021/08/01 09:11:23;;;;;;;1.85;0.80;;;;;;;;;;5094390;28;20031;-77
2021/08/01 09:13:48;;;;;;;2.90;1.08;;;;;;;;;;5094437;28;20019;-76
2021/08/01 09:16:14;;;;;;;1.77;1.00;;;;;;;;;;5094339;28;20357;-77
2021/08/01 09:18:40;;;;;;;1.35;1.00;;;;;;;;;;5094644;28;20027;-77
2021/08/01 09:21:05;;;;;;;2.50;1.15;;;;;;;;;;5094661;28;20357;-77
2021/08/01 09:23:30;;;;;;;2.75;1.50;;;;;;;;;;5094488;28;20028;-77
2021/08/01 09:26:03;;;;;;;3.88;1.58;;;;;;;;;;5094520;28;20035;-76
2021/08/01 09:28:29;;;;;;;3.20;1.23;;;;;;;;;;5094432;28;20078;-77
2021/08/01 09:31:04;;;;;;;1.77;1.20;;;;;;;;;;5094356;28;20465;-77
2021/08/01 09:33:31;;;;;;;6.13;1.45;;;;;;;;;;5094300;28;20036;-77
2021/08/01 09:36:12;;;;;;;2.38;1.30;;;;;;;;;;5094207;28;20043;-77
2021/08/01 09:38:44;;;;;;;4.82;1.20;;;;;;;;;;5094145;28;20024;-77
2021/08/01 09:41:10;;;;;;;2.22;1.27;;;;;;;;;;5092754;28;20480;-77
2021/08/01 09:43:45;;;;;;;2.67;1.30;;;;;;;;;;5088513;28;20060;-77
2021/08/01 09:46:11;;;;;;;2.85;1.40;;;;;;;;;;5093090;28;20500;-77
2021/08/01 09:48:36;;;;;;;2.45;1.80;;;;;;;;;;5092103;28;20043;-77
2021/08/01 09:51:05;;;;;;;2.13;1.50;;;;;;;;;;5093571;28;20059;-78
2021/08/01 09:53:31;;;;;;;304.40;56.92;;;;;;;;;;5093374;28;20119;-77
2021/08/01 09:56:26;;;;;;;3.78;1.05;;;;;;;;;;5093254;28;20111;-77
2021/08/01 09:58:52;;;;;;;2.10;1.52;;;;;;;;;;5082758;28;20040;-78
2021/08/01 10:01:17;;;;;;;2.50;1.52;;;;;;;;;;5093072;28;20043;-77
2021/08/01 10:03:43;;;;;;;2.03;1.20;;;;;;;;;;5093173;28;20024;-77
2021/08/01 10:06:15;;;;;;;3.15;1.50;;;;;;;;;;5092966;28;20027;-78
2021/08/01 10:08:44;;;;;;;1.45;1.00;;;;;;;;;;5092981;28;20188;-78
2021/08/01 10:11:10;;;;;;;2.53;1.00;;;;;;;;;;5093064;28;20426;-78
2021/08/01 10:13:37;;;;;;;1.33;0.88;;;;;;;;;;5092551;28;20031;-77
2021/08/01 10:16:03;;;;;;;4.05;1.10;;;;;;;;;;5093114;28;20109;-78
2021/08/01 10:18:28;;;;;;;1.27;0.95;;;;;;;;;;5093147;28;20508;-78
2021/08/01 10:20:54;;;;;;;2.55;0.70;;;;;;;;;;5093554;28;20101;-77
2021/08/01 10:23:20;;;;;;;3.63;1.48;;;;;;;;;;5093259;28;20431;-77
2021/08/01 10:25:46;;;;;;;22.75;16.77;;;;;;;;;;5093560;28;20028;-77
2021/08/01 10:28:12;;;;;;;10.18;9.30;;;;;;;;;;5093484;28;20085;-78
2021/08/01 10:30:38;;;;;;;4.93;3.45;;;;;;;;;;5093656;28;20020;-77
2021/08/01 10:33:05;;;;;;;7.18;6.70;;;;;;;;;;5093564;28;20032;-78
2021/08/01 10:35:33;;;;;;;1.40;1.20;;;;;;;;;;5092090;28;20111;-78
2021/08/01 10:38:03;;;;;;;0.95;0.80;;;;;;;;;;5093663;28;20025;-78
2021/08/01 10:40:31;;;;;;;2.75;1.10;;;;;;;;;;5093122;28;20062;-78
2021/08/01 10:43:01;;;;;;;1.42;1.02;;;;;;;;;;5093368;28;20039;-78
2021/08/01 10:45:27;;;;;;;3.35;1.05;;;;;;;;;;5093395;28;20020;-77
2021/08/01 10:47:53;;;;;;;1.27;0.93;;;;;;;;;;5092148;28;20039;-78
2021/08/01 10:50:25;;;;;;;4.75;1.05;;;;;;;;;;5093011;28;20484;-78
2021/08/01 10:53:11;;;;;;;1.42;0.80;;;;;;;;;;5093471;28;20041;-78
2021/08/01 10:55:36;;;;;;;2.05;1.20;;;;;;;;;;5093242;28;20384;-77
2021/08/01 10:58:12;;;;;;;4.47;1.30;;;;;;;;;;5093336;28;20084;-77
2021/08/01 11:00:55;;;;;;;2.03;1.10;;;;;;;;;;5093273;28;20075;-78
2021/08/01 11:03:22;;;;;;;1.65;1.30;;;;;;;;;;5092934;28;20488;-78
2021/08/01 11:05:47;;;;;;;2.95;1.13;;;;;;;;;;5093354;28;20039;-78
2021/08/01 11:08:13;;;;;;;5.30;1.30;;;;;;;;;;5093133;28;20036;-78
2021/08/01 11:10:39;;;;;;;3.17;2.40;;;;;;;;;;5093207;28;20520;-78
2021/08/01 11:13:34;;;;;;;2.58;1.52;;;;;;;;;;5093110;28;20020;-78
2021/08/01 11:16:00;;;;;;;;;;;;;;;;;;5076731;28;20044;-78
2021/08/01 11:18:32;;;;;;;1.77;1.10;;;;;;;;;;5090235;28;19908;-78
2021/08/01 11:21:03;;;;;;;2.28;1.13;;;;;;;;;;5091108;28;20044;-78
2021/08/01 11:23:44;;;;;;;1.35;0.95;;;;;;;;;;5092911;28;20059;-78
2021/08/01 11:26:11;;;;;;;2.63;1.65;;;;;;;;;;5092689;28;20050;-78
2021/08/01 11:28:36;;;;;;;2.42;1.30;;;;;;;;;;5096312;28;20016;-78
2021/08/01 11:31:01;;;;;;;2.33;1.60;;;;;;;;;;5096579;28;20032;-78
2021/08/01 11:33:40;;;;;;;2.72;1.42;;;;;;;;;;5095984;28;20035;-78
2021/08/01 11:36:17;;;;;;;2.95;1.52;;;;;;;;;;5096496;28;20027;-78
2021/08/01 11:38:48;;;;;;;2.28;1.38;;;;;;;;;;5096592;28;20032;-79
2021/08/01 11:41:25;;;;;;;64.38;12.25;;;;;;;;;;5096328;28;20016;-78
2021/08/01 11:43:57;;;;;;;2.63;1.60;;;;;;;;;;5096441;28;20475;-78
2021/08/01 11:46:23;;;;;;;4.05;1.50;;;;;;;;;;5096436;28;20028;-78
2021/08/01 11:48:57;;;;;;;1.92;1.40;;;;;;;;;;5096366;28;20035;-78
2021/08/01 11:51:23;;;;;;;2.87;1.40;;;;;;;;;;5096286;28;20040;-78
2021/08/01 11:53:49;;;;;;;1.95;1.40;;;;;;;;;;5096329;28;20032;-78
2021/08/01 11:56:14;;;;;;;3.28;1.45;;;;;;;;;;5096139;28;20103;-78
2021/08/01 11:58:40;;;;;;;2.58;1.35;;;;;;;;;;5096219;28;20060;-78
2021/08/01 12:01:06;;;;;;;2.30;1.48;;;;;;;;;;5095982;28;20036;-78
2021/08/01 12:03:33;;;;;;;3.55;1.45;;;;;;;;;;5096084;28;20523;-78
2021/08/01 12:05:59;;;;;;;2.80;1.70;;;;;;;;;;5096014;28;20028;-78
2021/08/01 12:08:28;;;;;;;3.40;1.55;;;;;;;;;;5095970;28;20073;-78
2021/08/01 12:11:06;;;;;;;3.17;1.35;;;;;;;;;;5095904;28;20039;-78
2021/08/01 12:13:32;;;;;;;2.75;1.38;;;;;;;;;;5095924;28;20077;-78
2021/08/01 12:15:57;;;;;;;2.40;1.50;;;;;;;;;;5095492;28;20530;-78
2021/08/01 12:18:26;;;;;;;2.90;1.63;;;;;;;;;;5095789;28;20103;-78
2021/08/01 12:20:51;;;;;;;2.78;1.50;;;;;;;;;;5096145;28;20055;-79
2021/08/01 12:23:18;;;;;;;2.92;1.80;;;;;;;;;;5097404;28;20040;-78
2021/08/01 12:25:47;;;;;;;2.33;1.38;;;;;;;;;;5112338;28;20049;-78
2021/08/01 12:28:12;;;;;;;2.05;1.40;;;;;;;;;;5100421;28;20027;-78
2021/08/01 12:30:44;;;;;;;3.10;1.50;;;;;;;;;;5107154;28;20433;-78
2021/08/01 12:33:09;;;;;;;2.55;1.40;;;;;;;;;;5095556;28;20076;-78
2021/08/01 12:35:38;;;;;;;4.32;1.70;;;;;;;;;;5095385;28;20024;-78
2021/08/01 12:38:05;;;;;;;2.38;1.40;;;;;;;;;;5095276;28;20092;-78
2021/08/01 12:40:30;;;;;;;3.65;1.75;;;;;;;;;;5095343;28;21081;-79
2021/08/01 12:42:57;;;;;;;2.33;1.45;;;;;;;;;;5095260;28;20040;-79
2021/08/01 12:45:28;;;;;;;2.92;1.58;;;;;;;;;;5095269;28;20040;-78
2021/08/01 12:47:54;;;;;;;3.72;1.52;;;;;;;;;;5093918;28;20357;-78
2021/08/01 12:50:21;;;;;;;2.22;1.55;;;;;;;;;;5095088;28;20031;-78
2021/08/01 12:52:46;;;;;;;2.72;1.48;;;;;;;;;;5095213;28;20057;-78
2021/08/01 12:55:12;;;;;;;4.20;1.83;;;;;;;;;;5094985;28;20028;-79
2021/08/01 12:57:56;;;;;;;3.75;1.58;;;;;;;;;;5095096;28;20023;-78
2021/08/01 13:00:24;;;;;;;2.07;1.37;;;;;;;;;;5094956;28;20032;-78
2021/08/01 13:02:53;;;;;;;2.92;1.58;;;;;;;;;;5094867;28;20424;-78
2021/08/01 13:05:23;;;;;;;2.40;1.63;;;;;;;;;;5094860;28;20103;-79
2021/08/01 13:07:48;;;;;;;3.70;1.58;;;;;;;;;;5093603;28;20480;-78
2021/08/01 13:10:14;;;;;;;1.50;1.30;;;;;;;;;;5094753;28;20056;-78
2021/08/01 13:12:40;;;;;;;3.95;1.90;;;;;;;;;;5095081;28;20031;-78
2021/08/01 13:15:24;;;;;;;3.15;1.60;;;;;;;;;;5091233;28;20027;-78
2021/08/01 13:17:49;;;;;;;3.92;1.77;;;;;;;;;;5093612;28;20027;-77
2021/08/01 13:20:30;;;;;;;4.60;1.83;;;;;;;;;;5094080;28;20052;-78
2021/08/01 13:22:57;;;;;;;2.47;1.55;;;;;;;;;;5094435;28;20110;-78
2021/08/01 13:25:31;;;;;;;3.25;2.95;;;;;;;;;;5094489;28;20403;-78
2021/08/01 13:27:56;;;;;;;2.10;1.47;;;;;;;;;;5094855;28;20020;-78
2021/08/01 13:30:23;;;;;;;1.95;1.50;;;;;;;;;;5093907;28;20035;-78
2021/08/01 13:32:48;;;;;;;3.13;1.70;;;;;;;;;;5094093;28;20086;-78
2021/08/01 13:35:24;;;;;;;2.63;1.63;;;;;;;;;;5093613;28;20460;-78
2021/08/01 13:38:05;;;;;;;2.53;1.50;;;;;;;;;;5094320;28;20031;-78
2021/08/01 13:40:32;;;;;;;2.90;1.77;;;;;;;;;;5093284;28;20027;-78
2021/08/01 13:42:57;;;;;;;2.45;1.33;;;;;;;;;;5093753;28;20472;-78
2021/08/01 13:45:26;;;;;;;3.95;1.60;;;;;;;;;;5093826;28;20023;-78
2021/08/01 13:47:53;;;;;;;2.10;1.55;;;;;;;;;;5093874;28;20365;-78
2021/08/01 13:50:18;;;;;;;4.15;1.90;;;;;;;;;;5093045;28;20105;-78
2021/08/01 13:52:45;;;;;;;2.05;1.50;;;;;;;;;;5093940;28;20019;-78
2021/08/01 13:55:10;;;;;;;18.23;4.47;;;;;;;;;;5093665;28;20469;-78
2021/08/01 13:57:36;;;;;;;2.33;1.67;;;;;;;;;;5094007;28;20049;-78
2021/08/01 14:00:01;;;;;;;2.72;1.70;;;;;;;;;;5093865;28;20442;-78
2021/08/01 14:02:27;;;;;;;2.35;1.80;;;;;;;;;;5094017;28;20465;-78
2021/08/01 14:04:53;;;;;;;2.50;1.58;;;;;;;;;;5093583;28;20035;-78
2021/08/01 14:07:18;;;;;;;2.50;1.73;;;;;;;;;;5093540;28;20015;-78
2021/08/01 14:09:44;;;;;;;3.92;2.10;;;;;;;;;;5093788;28;20046;-78
2021/08/01 14:12:09;;;;;;;2.47;1.60;;;;;;;;;;5093693;28;20027;-78
2021/08/01 14:14:35;;;;;;;3.63;2.17;;;;;;;;;;5093712;28;20371;-78
2021/08/01 14:17:01;;;;;;;4.50;1.80;;;;;;;;;;5093516;28;20024;-78
2021/08/01 14:19:26;;;;;;;3.22;1.70;;;;;;;;;;5093722;28;20031;-78
2021/08/01 14:21:52;;;;;;;3.25;1.83;;;;;;;;;;5093682;28;20040;-78
2021/08/01 14:24:18;;;;;;;4.00;2.00;;;;;;;;;;5093663;28;20028;-78